Accueil
METAR-TAF:

METAR-TAF

Aéroports :

Bornemouth, Angleterre

Aéroport de Bournemouth

latitude: 50-47N, longitude: 001-50W, altitude: 11 m

Observation

Le bulletin a été fait il y a 27 minutes, à 21:20 UTC
Vent 5 kt de ouest
Température 8°C
Humidité 87%
Pression 1023 hPa
Visibilité 10 km ou plus
pas de nuages en-dessous de 1500 mètres et pas de cumulonimbus.

METAR: EGHH 232120Z 27005KT CAVOK 08/06 Q1023

Heure: 22:47 (21:47 UTC)

Prévision

Le bulletin a été fait il y a 1 heure et 55 minutes, à 19:52 UTC
Prévision valable du 23 à 21 UTC au 24 à 06 UTC
Vent 5 kt de ouest/nord-ouest
Visibilité 10 km ou plus
Quelques nuages à une hauteur de 4500 ft
Probabilité 40%
du 24 à 04 UTC au 24 à 06 UTC
Visibilité: 3000 m
brume

TAF: EGHH 231952Z 2321/2406 29005KT 9999 FEW045 PROB40 2404/2406 3000 BR

Observations et prévisions météorologiques de plus de 4000 aéroports (messages METAR et TAF).

Les stations disponibles sont représentées par des disques jaunes et rouges sur la carte.

Passer la souris dessus pour voir le nom de la station.

Cliquer dessus pour voir les observations et prévisions météorologiques.

Pour changer de carte: cliquez sur les boutons verts avec une croix noire pour zoomer, sur le bouton vert avec un tiret pour effectuer un zoom arrière, ou sur les flèches vertes pour les cartes adjacentes.


METAR-TAF: